sensor_id;sensor_type;location;lat;lon;timestamp;pressure;altitude;pressure_sealevel;temperature;humidity
76746;BME280;65671;49.976;20.038;2023-11-18T00:01:24;97834.31;;;3.19;100.00
76746;BME280;65671;49.976;20.038;2023-11-18T00:03:49;97839.84;;;3.26;100.00
76746;BME280;65671;49.976;20.038;2023-11-18T00:06:15;97841.72;;;3.26;100.00
76746;BME280;65671;49.976;20.038;2023-11-18T00:08:40;97837.50;;;3.25;100.00
76746;BME280;65671;49.976;20.038;2023-11-18T00:11:06;97842.88;;;2.94;100.00
76746;BME280;65671;49.976;20.038;2023-11-18T00:13:32;97842.84;;;3.25;100.00
76746;BME280;65671;49.976;20.038;2023-11-18T00:15:57;97842.84;;;3.25;100.00
76746;BME280;65671;49.976;20.038;2023-11-18T00:18:23;97834.75;;;3.06;100.00
76746;BME280;65671;49.976;20.038;2023-11-18T00:20:49;97843.66;;;3.10;100.00
76746;BME280;65671;49.976;20.038;2023-11-18T00:23:16;97847.94;;;3.14;100.00
76746;BME280;65671;49.976;20.038;2023-11-18T00:25:42;97844.34;;;2.91;100.00
76746;BME280;65671;49.976;20.038;2023-11-18T00:28:10;97854.16;;;2.71;100.00
76746;BME280;65671;49.976;20.038;2023-11-18T00:30:35;97858.72;;;2.71;100.00
76746;BME280;65671;49.976;20.038;2023-11-18T00:33:01;97862.00;;;2.96;100.00
76746;BME280;65671;49.976;20.038;2023-11-18T00:35:35;97857.09;;;2.82;100.00
76746;BME280;65671;49.976;20.038;2023-11-18T00:38:01;97860.88;;;2.81;100.00
76746;BME280;65671;49.976;20.038;2023-11-18T00:40:27;97864.25;;;2.94;100.00
76746;BME280;65671;49.976;20.038;2023-11-18T00:42:58;97861.94;;;2.92;100.00
76746;BME280;65671;49.976;20.038;2023-11-18T00:45:23;97873.31;;;2.89;100.00
76746;BME280;65671;49.976;20.038;2023-11-18T00:47:49;97874.34;;;2.85;100.00
76746;BME280;65671;49.976;20.038;2023-11-18T00:50:14;97874.47;;;3.04;100.00
76746;BME280;65671;49.976;20.038;2023-11-18T00:52:40;97872.00;;;2.99;100.00
76746;BME280;65671;49.976;20.038;2023-11-18T00:55:08;97869.94;;;3.08;100.00
76746;BME280;65671;49.976;20.038;2023-11-18T00:57:34;97870.91;;;3.15;100.00
76746;BME280;65671;49.976;20.038;2023-11-18T01:00:00;97876.00;;;3.05;100.00
76746;BME280;65671;49.976;20.038;2023-11-18T01:02:25;97875.84;;;2.98;100.00
76746;BME280;65671;49.976;20.038;2023-11-18T01:04:51;97869.09;;;3.04;100.00
76746;BME280;65671;49.976;20.038;2023-11-18T01:07:17;97863.06;;;3.07;100.00
76746;BME280;65671;49.976;20.038;2023-11-18T01:09:42;97869.00;;;3.00;100.00
76746;BME280;65671;49.976;20.038;2023-11-18T01:12:08;97872.47;;;3.01;100.00
76746;BME280;65671;49.976;20.038;2023-11-18T01:14:38;97874.44;;;3.19;100.00
76746;BME280;65671;49.976;20.038;2023-11-18T01:17:07;97867.19;;;3.04;100.00
76746;BME280;65671;49.976;20.038;2023-11-18T01:19:34;97875.16;;;3.01;100.00
76746;BME280;65671;49.976;20.038;2023-11-18T01:22:00;97879.00;;;3.19;100.00
76746;BME280;65671;49.976;20.038;2023-11-18T01:24:25;97865.38;;;3.24;100.00
76746;BME280;65671;49.976;20.038;2023-11-18T01:26:51;97875.13;;;3.32;100.00
76746;BME280;65671;49.976;20.038;2023-11-18T01:29:16;97872.97;;;3.37;100.00
76746;BME280;65671;49.976;20.038;2023-11-18T01:31:42;97880.56;;;3.20;100.00
76746;BME280;65671;49.976;20.038;2023-11-18T01:34:09;97875.38;;;3.43;100.00
76746;BME280;65671;49.976;20.038;2023-11-18T01:36:40;97878.66;;;3.05;100.00
76746;BME280;65671;49.976;20.038;2023-11-18T01:39:06;97875.63;;;2.91;100.00
76746;BME280;65671;49.976;20.038;2023-11-18T01:41:32;97877.19;;;3.07;100.00
76746;BME280;65671;49.976;20.038;2023-11-18T01:43:58;97877.81;;;3.16;100.00
76746;BME280;65671;49.976;20.038;2023-11-18T01:46:24;97879.88;;;3.23;100.00
76746;BME280;65671;49.976;20.038;2023-11-18T01:48:50;97874.44;;;3.35;100.00
76746;BME280;65671;49.976;20.038;2023-11-18T01:51:16;97865.81;;;3.26;100.00
76746;BME280;65671;49.976;20.038;2023-11-18T01:53:47;97878.84;;;3.12;100.00
76746;BME280;65671;49.976;20.038;2023-11-18T01:56:13;97867.53;;;3.34;100.00
76746;BME280;65671;49.976;20.038;2023-11-18T01:58:40;97874.44;;;3.35;100.00
76746;BME280;65671;49.976;20.038;2023-11-18T02:01:06;97871.50;;;3.40;100.00
76746;BME280;65671;49.976;20.038;2023-11-18T02:03:36;97867.69;;;3.41;100.00
76746;BME280;65671;49.976;20.038;2023-11-18T02:06:04;97864.66;;;3.43;100.00
76746;BME280;65671;49.976;20.038;2023-11-18T02:08:31;97859.69;;;3.41;100.00
76746;BME280;65671;49.976;20.038;2023-11-18T02:11:01;97868.72;;;3.52;100.00
76746;BME280;65671;49.976;20.038;2023-11-18T02:13:33;97861.13;;;3.54;100.00
76746;BME280;65671;49.976;20.038;2023-11-18T02:16:02;97869.09;;;3.35;100.00
76746;BME280;65671;49.976;20.038;2023-11-18T02:18:30;97866.50;;;3.23;100.00
76746;BME280;65671;49.976;20.038;2023-11-18T02:20:56;97866.59;;;3.42;100.00
76746;BME280;65671;49.976;20.038;2023-11-18T02:23:25;97870.19;;;3.50;100.00
76746;BME280;65671;49.976;20.038;2023-11-18T02:25:52;97870.75;;;3.24;100.00
76746;BME280;65671;49.976;20.038;2023-11-18T02:28:18;97869.28;;;3.26;100.00
76746;BME280;65671;49.976;20.038;2023-11-18T02:30:45;97882.38;;;3.47;100.00
76746;BME280;65671;49.976;20.038;2023-11-18T02:33:20;97873.56;;;3.47;100.00
76746;BME280;65671;49.976;20.038;2023-11-18T02:39:11;97872.09;;;3.49;100.00
76746;BME280;65671;49.976;20.038;2023-11-18T02:41:41;97879.19;;;3.42;100.00
76746;BME280;65671;49.976;20.038;2023-11-18T02:44:10;97875.63;;;3.53;100.00
76746;BME280;65671;49.976;20.038;2023-11-18T02:46:38;97872.19;;;3.53;100.00
76746;BME280;65671;49.976;20.038;2023-11-18T02:49:04;97868.81;;;3.40;100.00
76746;BME280;65671;49.976;20.038;2023-11-18T02:51:29;97872.63;;;3.39;100.00
76746;BME280;65671;49.976;20.038;2023-11-18T02:54:07;97877.19;;;3.54;100.00
76746;BME280;65671;49.976;20.038;2023-11-18T02:56:38;97880.22;;;3.37;100.00
76746;BME280;65671;49.976;20.038;2023-11-18T02:59:05;97885.47;;;3.49;100.00
76746;BME280;65671;49.976;20.038;2023-11-18T03:01:34;97878.22;;;3.34;100.00
76746;BME280;65671;49.976;20.038;2023-11-18T03:04:02;97880.72;;;3.43;100.00
76746;BME280;65671;49.976;20.038;2023-11-18T03:06:28;97885.13;;;3.51;100.00
76746;BME280;65671;49.976;20.038;2023-11-18T03:08:53;97884.25;;;3.62;100.00
76746;BME280;65671;49.976;20.038;2023-11-18T03:11:19;97887.22;;;3.57;100.00
76746;BME280;65671;49.976;20.038;2023-11-18T03:13:45;97887.84;;;3.70;100.00
76746;BME280;65671;49.976;20.038;2023-11-18T03:16:14;97890.50;;;3.51;100.00
76746;BME280;65671;49.976;20.038;2023-11-18T03:18:39;97889.69;;;3.66;100.00
76746;BME280;65671;49.976;20.038;2023-11-18T03:21:10;97899.13;;;3.44;100.00
76746;BME280;65671;49.976;20.038;2023-11-18T03:23:38;97906.09;;;3.49;100.00
76746;BME280;65671;49.976;20.038;2023-11-18T03:26:03;97898.84;;;3.49;100.00
76746;BME280;65671;49.976;20.038;2023-11-18T03:28:30;97897.47;;;3.55;100.00
76746;BME280;65671;49.976;20.038;2023-11-18T03:30:56;97904.53;;;3.63;100.00
76746;BME280;65671;49.976;20.038;2023-11-18T03:33:22;97900.31;;;3.62;100.00
76746;BME280;65671;49.976;20.038;2023-11-18T03:35:57;97900.50;;;3.54;100.00
76746;BME280;65671;49.976;20.038;2023-11-18T03:38:22;97903.00;;;3.47;100.00
76746;BME280;65671;49.976;20.038;2023-11-18T03:40:49;97902.31;;;3.65;100.00
76746;BME280;65671;49.976;20.038;2023-11-18T03:43:14;97898.94;;;3.68;100.00
76746;BME280;65671;49.976;20.038;2023-11-18T03:45:40;97903.59;;;3.40;100.00
76746;BME280;65671;49.976;20.038;2023-11-18T03:48:06;97909.41;;;3.42;100.00
76746;BME280;65671;49.976;20.038;2023-11-18T03:50:35;97913.97;;;3.57;100.00
76746;BME280;65671;49.976;20.038;2023-11-18T03:53:01;97912.31;;;3.68;100.00
76746;BME280;65671;49.976;20.038;2023-11-18T03:55:28;97915.91;;;3.76;100.00
76746;BME280;65671;49.976;20.038;2023-11-18T03:57:53;97923.72;;;3.65;100.00
76746;BME280;65671;49.976;20.038;2023-11-18T04:00:19;97922.94;;;3.49;100.00
76746;BME280;65671;49.976;20.038;2023-11-18T04:02:46;97923.31;;;3.48;100.00
76746;BME280;65671;49.976;20.038;2023-11-18T04:05:12;97917.00;;;3.56;100.00
76746;BME280;65671;49.976;20.038;2023-11-18T04:07:38;97930.28;;;3.68;100.00
76746;BME280;65671;49.976;20.038;2023-11-18T04:10:07;97921.56;;;3.55;100.00
76746;BME280;65671;49.976;20.038;2023-11-18T04:12:36;97927.09;;;3.31;100.00
76746;BME280;65671;49.976;20.038;2023-11-18T04:15:01;97922.75;;;3.58;100.00
76746;BME280;65671;49.976;20.038;2023-11-18T04:17:30;97921.81;;;3.50;100.00
76746;BME280;65671;49.976;20.038;2023-11-18T04:19:56;97925.94;;;3.63;100.00
76746;BME280;65671;49.976;20.038;2023-11-18T04:22:22;97925.44;;;3.73;100.00
76746;BME280;65671;49.976;20.038;2023-11-18T04:24:47;97928.38;;;3.53;100.00
76746;BME280;65671;49.976;20.038;2023-11-18T04:27:13;97922.34;;;3.56;100.00
76746;BME280;65671;49.976;20.038;2023-11-18T04:29:39;97934.25;;;3.58;100.00
76746;BME280;65671;49.976;20.038;2023-11-18T04:32:06;97939.59;;;3.43;100.00
76746;BME280;65671;49.976;20.038;2023-11-18T04:34:35;97941.50;;;3.58;100.00
76746;BME280;65671;49.976;20.038;2023-11-18T04:37:03;97941.50;;;3.58;100.00
76746;BME280;65671;49.976;20.038;2023-11-18T04:39:33;97932.44;;;3.62;100.00
76746;BME280;65671;49.976;20.038;2023-11-18T04:41:59;97938.22;;;3.80;100.00
76746;BME280;65671;49.976;20.038;2023-11-18T04:44:26;97932.25;;;3.71;100.00
76746;BME280;65671;49.976;20.038;2023-11-18T04:46:52;97936.31;;;3.65;100.00
76746;BME280;65671;49.976;20.038;2023-11-18T04:49:18;97926.81;;;3.67;100.00
76746;BME280;65671;49.976;20.038;2023-11-18T04:51:44;97935.16;;;3.81;100.00
76746;BME280;65671;49.976;20.038;2023-11-18T04:54:11;97928.47;;;3.41;100.00
76746;BME280;65671;49.976;20.038;2023-11-18T04:56:37;97932.44;;;3.62;100.00
76746;BME280;65671;49.976;20.038;2023-11-18T04:59:03;97929.69;;;3.59;100.00
76746;BME280;65671;49.976;20.038;2023-11-18T05:01:32;97932.78;;;3.76;100.00
76746;BME280;65671;49.976;20.038;2023-11-18T05:03:59;97925.81;;;3.56;100.00
76746;BME280;65671;49.976;20.038;2023-11-18T05:06:25;97933.13;;;3.59;100.00
76746;BME280;65671;49.976;20.038;2023-11-18T05:08:51;97931.16;;;3.56;100.00
76746;BME280;65671;49.976;20.038;2023-11-18T05:11:17;97928.91;;;3.58;100.00
76746;BME280;65671;49.976;20.038;2023-11-18T05:13:42;97937.34;;;3.76;100.00
76746;BME280;65671;49.976;20.038;2023-11-18T05:16:08;97940.38;;;3.74;100.00
76746;BME280;65671;49.976;20.038;2023-11-18T05:18:36;97938.50;;;3.75;100.00
76746;BME280;65671;49.976;20.038;2023-11-18T05:21:03;97932.44;;;3.62;100.00
76746;BME280;65671;49.976;20.038;2023-11-18T05:23:33;97939.19;;;3.56;100.00
76746;BME280;65671;49.976;20.038;2023-11-18T05:25:59;97933.22;;;3.31;100.00
76746;BME280;65671;49.976;20.038;2023-11-18T05:28:24;97935.91;;;3.16;100.00
76746;BME280;65671;49.976;20.038;2023-11-18T05:30:51;97938.84;;;3.42;100.00
76746;BME280;65671;49.976;20.038;2023-11-18T05:33:17;97940.22;;;3.36;100.00
76746;BME280;65671;49.976;20.038;2023-11-18T05:35:46;97941.59;;;3.46;100.00
76746;BME280;65671;49.976;20.038;2023-11-18T05:38:18;97955.25;;;3.56;100.00
76746;BME280;65671;49.976;20.038;2023-11-18T05:40:47;97954.28;;;3.49;100.00
76746;BME280;65671;49.976;20.038;2023-11-18T05:43:26;97957.66;;;3.30;100.00
76746;BME280;65671;49.976;20.038;2023-11-18T05:45:57;97959.66;;;2.90;100.00
76746;BME280;65671;49.976;20.038;2023-11-18T05:48:45;97951.84;;;3.28;100.00
76746;BME280;65671;49.976;20.038;2023-11-18T05:51:11;97958.97;;;2.93;100.00
76746;BME280;65671;49.976;20.038;2023-11-18T05:53:40;97969.38;;;3.25;100.00
76746;BME280;65671;49.976;20.038;2023-11-18T05:56:07;97966.25;;;3.08;100.00
76746;BME280;65671;49.976;20.038;2023-11-18T05:58:33;97970.28;;;3.02;100.00
76746;BME280;65671;49.976;20.038;2023-11-18T06:00:59;97967.38;;;3.07;100.00
76746;BME280;65671;49.976;20.038;2023-11-18T06:03:25;97969.28;;;3.06;100.00
76746;BME280;65671;49.976;20.038;2023-11-18T06:05:51;97971.09;;;3.18;100.00
76746;BME280;65671;49.976;20.038;2023-11-18T06:08:17;97972.00;;;2.94;100.00
76746;BME280;65671;49.976;20.038;2023-11-18T06:10:42;97972.88;;;2.98;100.00
76746;BME280;65671;49.976;20.038;2023-11-18T06:13:10;97970.78;;;3.35;100.00
76746;BME280;65671;49.976;20.038;2023-11-18T06:15:38;97969.31;;;3.37;100.00
76746;BME280;65671;49.976;20.038;2023-11-18T06:18:05;97965.53;;;3.38;100.00
76746;BME280;65671;49.976;20.038;2023-11-18T06:20:30;97981.22;;;3.24;100.00
76746;BME280;65671;49.976;20.038;2023-11-18T06:22:58;97977.00;;;3.55;100.00
76746;BME280;65671;49.976;20.038;2023-11-18T06:25:23;97977.94;;;3.47;100.00
76746;BME280;65671;49.976;20.038;2023-11-18T06:27:51;97977.16;;;3.46;100.00
76746;BME280;65671;49.976;20.038;2023-11-18T06:30:18;97995.47;;;3.44;100.00
76746;BME280;65671;49.976;20.038;2023-11-18T06:32:45;97995.41;;;3.56;100.00
76746;BME280;65671;49.976;20.038;2023-11-18T06:35:33;98005.34;;;3.71;100.00
76746;BME280;65671;49.976;20.038;2023-11-18T06:38:01;97999.13;;;3.67;100.00
76746;BME280;65671;49.976;20.038;2023-11-18T06:40:28;98002.22;;;3.69;100.00
76746;BME280;65671;49.976;20.038;2023-11-18T06:42:53;98003.59;;;3.63;100.00
76746;BME280;65671;49.976;20.038;2023-11-18T06:45:26;98002.47;;;3.64;100.00
76746;BME280;65671;49.976;20.038;2023-11-18T06:47:52;98005.44;;;3.75;100.00
76746;BME280;65671;49.976;20.038;2023-11-18T06:50:17;98000.31;;;3.85;100.00
76746;BME280;65671;49.976;20.038;2023-11-18T06:52:49;98007.75;;;3.61;100.00
76746;BME280;65671;49.976;20.038;2023-11-18T06:55:16;98002.47;;;3.64;100.00
76746;BME280;65671;49.976;20.038;2023-11-18T06:57:41;98019.13;;;3.42;100.00
76746;BME280;65671;49.976;20.038;2023-11-18T07:00:10;98011.53;;;3.01;100.00
76746;BME280;65671;49.976;20.038;2023-11-18T07:02:39;98014.91;;;3.13;100.00
76746;BME280;65671;49.976;20.038;2023-11-18T07:05:05;98023.16;;;2.93;100.00
76746;BME280;65671;49.976;20.038;2023-11-18T07:07:31;98017.25;;;2.87;100.00
76746;BME280;65671;49.976;20.038;2023-11-18T07:09:57;98036.25;;;2.70;100.00
76746;BME280;65671;49.976;20.038;2023-11-18T07:12:23;98028.53;;;2.80;100.00
76746;BME280;65671;49.976;20.038;2023-11-18T07:14:48;98040.53;;;2.59;100.00
76746;BME280;65671;49.976;20.038;2023-11-18T07:17:14;98036.66;;;2.44;100.00
76746;BME280;65671;49.976;20.038;2023-11-18T07:19:40;98038.84;;;2.54;100.00
76746;BME280;65671;49.976;20.038;2023-11-18T07:22:05;98039.84;;;2.62;100.00
76746;BME280;65671;49.976;20.038;2023-11-18T07:24:32;98039.91;;;2.38;100.00
76746;BME280;65671;49.976;20.038;2023-11-18T07:26:58;98051.13;;;2.31;100.00
76746;BME280;65671;49.976;20.038;2023-11-18T07:29:25;98038.13;;;2.30;100.00
76746;BME280;65671;49.976;20.038;2023-11-18T07:31:52;98037.34;;;2.29;100.00
76746;BME280;65671;49.976;20.038;2023-11-18T07:34:20;98032.22;;;2.36;100.00
76746;BME280;65671;49.976;20.038;2023-11-18T07:36:47;98037.16;;;3.02;100.00
76746;BME280;65671;49.976;20.038;2023-11-18T07:39:13;98034.38;;;2.98;100.00
76746;BME280;65671;49.976;20.038;2023-11-18T07:41:41;98034.97;;;2.52;100.00
76746;BME280;65671;49.976;20.038;2023-11-18T07:44:07;98033.47;;;2.66;100.00
76746;BME280;65671;49.976;20.038;2023-11-18T07:46:36;98038.50;;;2.96;100.00
76746;BME280;65671;49.976;20.038;2023-11-18T07:49:04;98033.81;;;2.77;100.00
76746;BME280;65671;49.976;20.038;2023-11-18T07:51:29;98028.44;;;3.05;100.00
76746;BME280;65671;49.976;20.038;2023-11-18T07:53:55;98042.81;;;3.12;100.00
76746;BME280;65671;49.976;20.038;2023-11-18T07:56:20;98043.44;;;2.94;100.00
76746;BME280;65671;49.976;20.038;2023-11-18T07:58:49;98044.06;;;2.63;100.00
76746;BME280;65671;49.976;20.038;2023-11-18T08:01:16;98045.44;;;2.57;100.00
76746;BME280;65671;49.976;20.038;2023-11-18T08:03:41;98050.06;;;2.72;100.00
76746;BME280;65671;49.976;20.038;2023-11-18T08:06:07;98053.03;;;2.95;100.00
76746;BME280;65671;49.976;20.038;2023-11-18T08:08:36;98057.91;;;2.65;100.00
76746;BME280;65671;49.976;20.038;2023-11-18T08:11:05;98061.53;;;2.72;100.00
76746;BME280;65671;49.976;20.038;2023-11-18T08:13:31;98066.69;;;2.65;100.00
76746;BME280;65671;49.976;20.038;2023-11-18T08:15:57;98064.41;;;2.92;100.00
76746;BME280;65671;49.976;20.038;2023-11-18T08:18:26;98072.72;;;2.62;100.00
76746;BME280;65671;49.976;20.038;2023-11-18T08:20:53;98077.19;;;2.46;100.00
76746;BME280;65671;49.976;20.038;2023-11-18T08:23:18;98063.94;;;2.13;100.00
76746;BME280;65671;49.976;20.038;2023-11-18T08:25:44;98079.84;;;2.58;100.00
76746;BME280;65671;49.976;20.038;2023-11-18T08:28:11;98072.75;;;2.90;100.00
76746;BME280;65671;49.976;20.038;2023-11-18T08:30:39;98082.25;;;3.15;100.00
76746;BME280;65671;49.976;20.038;2023-11-18T08:33:04;98088.19;;;3.09;100.00
76746;BME280;65671;49.976;20.038;2023-11-18T08:35:40;98090.66;;;3.02;100.00
76746;BME280;65671;49.976;20.038;2023-11-18T08:38:07;98087.19;;;3.01;100.00
76746;BME280;65671;49.976;20.038;2023-11-18T08:40:33;98078.59;;;3.35;100.00
76746;BME280;65671;49.976;20.038;2023-11-18T08:42:59;98086.81;;;3.43;100.00
76746;BME280;65671;49.976;20.038;2023-11-18T08:45:27;98083.38;;;3.42;100.00
76746;BME280;65671;49.976;20.038;2023-11-18T08:47:58;98089.94;;;3.60;100.00
76746;BME280;65671;49.976;20.038;2023-11-18T08:50:25;98095.06;;;3.65;100.00
76746;BME280;65671;49.976;20.038;2023-11-18T08:52:52;98086.44;;;3.87;100.00
76746;BME280;65671;49.976;20.038;2023-11-18T08:55:23;98092.75;;;3.79;100.00
76746;BME280;65671;49.976;20.038;2023-11-18T08:57:59;98096.56;;;3.35;100.00
76746;BME280;65671;49.976;20.038;2023-11-18T09:00:27;98103.66;;;3.86;100.00
76746;BME280;65671;49.976;20.038;2023-11-18T09:03:16;98103.41;;;3.48;100.00
76746;BME280;65671;49.976;20.038;2023-11-18T09:06:03;98109.16;;;3.62;100.00
76746;BME280;65671;49.976;20.038;2023-11-18T09:08:35;98106.81;;;3.33;100.00
76746;BME280;65671;49.976;20.038;2023-11-18T09:11:02;98109.63;;;3.52;100.00
76746;BME280;65671;49.976;20.038;2023-11-18T09:13:30;98122.00;;;3.57;100.00
76746;BME280;65671;49.976;20.038;2023-11-18T09:16:03;98117.72;;;3.40;100.00
76746;BME280;65671;49.976;20.038;2023-11-18T09:18:30;98126.91;;;3.55;100.00
76746;BME280;65671;49.976;20.038;2023-11-18T09:20:58;98129.91;;;3.25;100.00
76746;BME280;65671;49.976;20.038;2023-11-18T09:23:24;98121.28;;;3.44;100.00
76746;BME280;65671;49.976;20.038;2023-11-18T09:25:51;98126.84;;;3.11;100.00
76746;BME280;65671;49.976;20.038;2023-11-18T09:28:21;98131.25;;;3.31;100.00
76746;BME280;65671;49.976;20.038;2023-11-18T09:30:49;98126.56;;;3.56;100.00
76746;BME280;65671;49.976;20.038;2023-11-18T09:33:19;98128.44;;;3.00;100.00
76746;BME280;65671;49.976;20.038;2023-11-18T09:35:57;98135.47;;;2.93;100.00
76746;BME280;65671;49.976;20.038;2023-11-18T09:38:30;98134.06;;;3.23;100.00
76746;BME280;65671;49.976;20.038;2023-11-18T09:40:59;98138.50;;;2.79;100.00
76746;BME280;65671;49.976;20.038;2023-11-18T09:43:29;98128.34;;;2.85;100.00
76746;BME280;65671;49.976;20.038;2023-11-18T09:46:04;98137.81;;;2.94;100.00
76746;BME280;65671;49.976;20.038;2023-11-18T09:48:43;98137.06;;;2.57;100.00
76746;BME280;65671;49.976;20.038;2023-11-18T09:51:22;98148.59;;;3.10;100.00
76746;BME280;65671;49.976;20.038;2023-11-18T09:53:54;98150.22;;;2.74;100.00
76746;BME280;65671;49.976;20.038;2023-11-18T09:56:30;98148.78;;;2.53;100.00
76746;BME280;65671;49.976;20.038;2023-11-18T09:59:18;98151.47;;;1.84;100.00
76746;BME280;65671;49.976;20.038;2023-11-18T10:01:54;98153.91;;;1.77;100.00
76746;BME280;65671;49.976;20.038;2023-11-18T10:04:24;98160.13;;;1.81;100.00
76746;BME280;65671;49.976;20.038;2023-11-18T10:06:55;98157.44;;;1.68;100.00
76746;BME280;65671;49.976;20.038;2023-11-18T10:09:23;98160.41;;;1.55;100.00
76746;BME280;65671;49.976;20.038;2023-11-18T10:12:03;98156.78;;;1.72;100.00
76746;BME280;65671;49.976;20.038;2023-11-18T10:14:36;98175.38;;;1.80;100.00
76746;BME280;65671;49.976;20.038;2023-11-18T10:17:08;98187.75;;;1.85;100.00
76746;BME280;65671;49.976;20.038;2023-11-18T10:19:53;98180.34;;;1.69;100.00
76746;BME280;65671;49.976;20.038;2023-11-18T10:22:22;98173.09;;;1.58;100.00
76746;BME280;65671;49.976;20.038;2023-11-18T10:24:49;98177.25;;;1.67;100.00
76746;BME280;65671;49.976;20.038;2023-11-18T10:27:14;98186.06;;;1.47;100.00
76746;BME280;65671;49.976;20.038;2023-11-18T10:29:40;98193.59;;;1.45;100.00
76746;BME280;65671;49.976;20.038;2023-11-18T10:32:06;98191.34;;;1.35;100.00
76746;BME280;65671;49.976;20.038;2023-11-18T10:34:42;98186.22;;;1.63;100.00
76746;BME280;65671;49.976;20.038;2023-11-18T10:37:09;98198.56;;;1.88;100.00
76746;BME280;65671;49.976;20.038;2023-11-18T10:39:36;98199.13;;;1.61;100.00
76746;BME280;65671;49.976;20.038;2023-11-18T10:42:01;98206.75;;;1.83;100.00
76746;BME280;65671;49.976;20.038;2023-11-18T10:44:28;98205.72;;;1.76;100.00
76746;BME280;65671;49.976;20.038;2023-11-18T10:46:54;98204.81;;;1.72;100.00
76746;BME280;65671;49.976;20.038;2023-11-18T10:49:24;98210.47;;;1.91;100.00
76746;BME280;65671;49.976;20.038;2023-11-18T10:51:53;98206.06;;;1.74;100.00
76746;BME280;65671;49.976;20.038;2023-11-18T10:54:21;98218.50;;;1.70;100.00
76746;BME280;65671;49.976;20.038;2023-11-18T10:56:47;98224.41;;;1.76;100.00
76746;BME280;65671;49.976;20.038;2023-11-18T10:59:13;98218.22;;;1.84;100.00
76746;BME280;65671;49.976;20.038;2023-11-18T11:01:43;98225.78;;;1.82;100.00
76746;BME280;65671;49.976;20.038;2023-11-18T11:04:12;98226.66;;;1.74;100.00
76746;BME280;65671;49.976;20.038;2023-11-18T11:06:46;98237.91;;;1.58;100.00
76746;BME280;65671;49.976;20.038;2023-11-18T11:09:20;98235.19;;;1.46;100.00
76746;BME280;65671;49.976;20.038;2023-11-18T11:11:53;98237.06;;;1.66;100.00
76746;BME280;65671;49.976;20.038;2023-11-18T11:14:21;98243.38;;;1.62;100.00
76746;BME280;65671;49.976;20.038;2023-11-18T11:16:52;98235.56;;;1.57;100.00
76746;BME280;65671;49.976;20.038;2023-11-18T11:19:30;98232.97;;;1.48;100.00
76746;BME280;65671;49.976;20.038;2023-11-18T11:22:07;98255.16;;;1.40;100.00
76746;BME280;65671;49.976;20.038;2023-11-18T11:27:54;98263.69;;;1.54;100.00
76746;BME280;65671;49.976;20.038;2023-11-18T11:35:56;98272.16;;;1.27;100.00
76746;BME280;65671;49.976;20.038;2023-11-18T11:38:25;98269.22;;;1.49;100.00
76746;BME280;65671;49.976;20.038;2023-11-18T11:40:54;98271.34;;;1.35;100.00
76746;BME280;65671;49.976;20.038;2023-11-18T11:43:21;98273.03;;;1.40;100.00
76746;BME280;65671;49.976;20.038;2023-11-18T11:45:55;98273.81;;;1.20;100.00
76746;BME280;65671;49.976;20.038;2023-11-18T11:48:25;98279.25;;;1.52;100.00
76746;BME280;65671;49.976;20.038;2023-11-18T11:51:16;98282.09;;;1.47;100.00
76746;BME280;65671;49.976;20.038;2023-11-18T11:53:55;98284.34;;;1.37;100.00
76746;BME280;65671;49.976;20.038;2023-11-18T11:56:38;98295.97;;;1.41;100.00
76746;BME280;65671;49.976;20.038;2023-11-18T11:59:03;98299.81;;;1.52;100.00
76746;BME280;65671;49.976;20.038;2023-11-18T12:01:47;98305.06;;;1.60;100.00
76746;BME280;65671;49.976;20.038;2023-11-18T12:04:17;98306.66;;;1.82;100.00
76746;BME280;65671;49.976;20.038;2023-11-18T12:06:47;98308.16;;;1.71;100.00
76746;BME280;65671;49.976;20.038;2023-11-18T12:09:14;98301.03;;;1.54;100.00
76746;BME280;65671;49.976;20.038;2023-11-18T12:11:48;98308.00;;;1.47;100.00
76746;BME280;65671;49.976;20.038;2023-11-18T12:14:17;98309.47;;;1.65;100.00
76746;BME280;65671;49.976;20.038;2023-11-18T12:17:04;98308.16;;;1.42;100.00
76746;BME280;65671;49.976;20.038;2023-11-18T12:19:42;98316.78;;;1.47;100.00
76746;BME280;65671;49.976;20.038;2023-11-18T12:22:18;98316.31;;;1.45;100.00
76746;BME280;65671;49.976;20.038;2023-11-18T12:41:36;98341.75;;;1.43;100.00
76746;BME280;65671;49.976;20.038;2023-11-18T12:44:15;98339.69;;;1.48;100.00
76746;BME280;65671;49.976;20.038;2023-11-18T12:46:53;98344.22;;;1.56;100.00
76746;BME280;65671;49.976;20.038;2023-11-18T12:49:21;98349.03;;;1.34;100.00
76746;BME280;65671;49.976;20.038;2023-11-18T12:51:54;98352.94;;;1.36;100.00
76746;BME280;65671;49.976;20.038;2023-11-18T12:54:22;98330.41;;;1.25;100.00
76746;BME280;65671;49.976;20.038;2023-11-18T12:56:50;98348.03;;;1.18;100.00
76746;BME280;65671;49.976;20.038;2023-11-18T12:59:19;98342.22;;;1.16;100.00
76746;BME280;65671;49.976;20.038;2023-11-18T13:01:53;98354.41;;;1.25;100.00
76746;BME280;65671;49.976;20.038;2023-11-18T13:04:27;98357.56;;;1.19;100.00
76746;BME280;65671;49.976;20.038;2023-11-18T13:06:53;98361.13;;;1.31;100.00
76746;BME280;65671;49.976;20.038;2023-11-18T13:09:20;98365.56;;;1.19;100.00
76746;BME280;65671;49.976;20.038;2023-11-18T13:11:58;98373.66;;;1.01;100.00
76746;BME280;65671;49.976;20.038;2023-11-18T13:14:25;98376.88;;;1.16;100.00
76746;BME280;65671;49.976;20.038;2023-11-18T13:16:54;98379.38;;;1.21;100.00
76746;BME280;65671;49.976;20.038;2023-11-18T13:19:28;98393.69;;;1.07;100.00
76746;BME280;65671;49.976;20.038;2023-11-18T13:22:03;98395.44;;;1.12;100.00
76746;BME280;65671;49.976;20.038;2023-11-18T13:24:30;98397.81;;;0.96;100.00
76746;BME280;65671;49.976;20.038;2023-11-18T13:26:59;98395.06;;;1.22;100.00